createdAt,value
2023-02-28T00:01:31.815Z,52.23
2023-02-28T00:03:58.829Z,52.45
2023-02-28T00:06:26.355Z,52.34
2023-02-28T00:08:53.181Z,52.31
2023-02-28T00:11:20.005Z,52.39
2023-02-28T00:13:47.717Z,52.14
2023-02-28T00:16:17.183Z,52.31
2023-02-28T00:18:44.085Z,52.52
2023-02-28T00:21:10.960Z,52.65
2023-02-28T00:23:37.771Z,52.45
2023-02-28T00:26:04.855Z,52.60
2023-02-28T00:28:31.651Z,52.57
2023-02-28T00:30:58.976Z,52.52
2023-02-28T00:33:25.822Z,52.51
2023-02-28T00:35:52.737Z,52.50
2023-02-28T00:38:19.605Z,52.59
2023-02-28T00:40:46.528Z,52.76
2023-02-28T00:43:13.278Z,52.82
2023-02-28T00:45:40.103Z,52.81
2023-02-28T00:48:07.424Z,52.28
2023-02-28T00:50:34.240Z,52.77
2023-02-28T00:53:00.999Z,52.30
2023-02-28T00:55:27.960Z,52.25
2023-02-28T00:57:54.721Z,52.04
2023-02-28T01:00:21.616Z,51.92
2023-02-28T01:02:48.452Z,51.78
2023-02-28T01:05:15.466Z,51.59
2023-02-28T01:07:42.454Z,51.34
2023-02-28T01:10:10.094Z,51.05
2023-02-28T01:12:36.992Z,50.25
2023-02-28T01:15:04.106Z,49.88
2023-02-28T01:17:30.924Z,49.35
2023-02-28T01:19:57.886Z,48.86
2023-02-28T01:22:24.759Z,48.46
2023-02-28T01:24:51.561Z,47.88
2023-02-28T01:27:18.418Z,47.37
2023-02-28T01:29:45.223Z,46.98
2023-02-28T01:32:12.216Z,46.95
2023-02-28T01:34:39.284Z,45.94
2023-02-28T01:37:06.168Z,45.51
2023-02-28T01:39:32.929Z,45.37
2023-02-28T01:41:59.839Z,45.19
2023-02-28T01:45:14.751Z,45.18
2023-02-28T01:47:42.455Z,45.04
2023-02-28T01:50:13.052Z,44.53
2023-02-28T01:52:39.863Z,44.64
2023-02-28T01:55:07.286Z,44.49
2023-02-28T01:57:38.858Z,44.32
2023-02-28T02:00:16.877Z,44.24
2023-02-28T02:02:44.755Z,43.94
2023-02-28T02:05:16.021Z,43.88
2023-02-28T02:07:44.288Z,43.86
2023-02-28T02:10:16.111Z,43.59
2023-02-28T02:13:01.109Z,43.37
2023-02-28T02:15:35.426Z,42.92
2023-02-28T02:18:15.791Z,42.67
2023-02-28T02:21:13.560Z,42.46
2023-02-28T02:24:19.132Z,42.42
2023-02-28T02:27:07.531Z,42.42
2023-02-28T02:29:43.582Z,42.32
2023-02-28T02:32:34.625Z,42.04
2023-02-28T02:35:22.205Z,41.72
2023-02-28T02:38:08.377Z,41.81
2023-02-28T02:40:39.742Z,41.88
2023-02-28T02:43:15.387Z,41.73
2023-02-28T02:46:06.808Z,40.83
2023-02-28T02:48:34.692Z,40.57
2023-02-28T02:51:03.383Z,40.46
2023-02-28T02:53:33.730Z,40.25
2023-02-28T02:56:01.107Z,39.75
2023-02-28T02:58:30.679Z,39.34
2023-02-28T03:01:00.491Z,38.61
2023-02-28T03:03:30.686Z,38.32
2023-02-28T03:06:01.746Z,38.10
2023-02-28T03:08:30.412Z,38.15
2023-02-28T03:11:01.199Z,37.45
2023-02-28T03:13:47.540Z,37.40
2023-02-28T03:16:23.406Z,37.05
2023-02-28T03:19:02.419Z,36.98
2023-02-28T03:21:32.171Z,36.83
2023-02-28T03:24:11.041Z,36.89
2023-02-28T03:26:40.987Z,36.42
2023-02-28T03:29:26.369Z,36.42
2023-02-28T03:32:00.993Z,35.71
2023-02-28T03:34:34.493Z,35.55
2023-02-28T03:37:05.729Z,35.35
2023-02-28T03:39:39.207Z,35.11
2023-02-28T03:42:26.331Z,35.17
2023-02-28T03:45:04.339Z,35.25
2023-02-28T03:47:42.733Z,35.32
2023-02-28T03:50:14.348Z,35.23
2023-02-28T03:52:46.313Z,35.04
2023-02-28T03:55:14.202Z,34.90
2023-02-28T03:58:00.920Z,34.96
2023-02-28T04:01:01.529Z,35.25
2023-02-28T04:03:28.402Z,35.20
2023-02-28T04:05:55.749Z,35.11
2023-02-28T04:08:22.868Z,34.98
2023-02-28T04:10:57.356Z,35.06
2023-02-28T04:13:24.202Z,34.87
2023-02-28T04:15:51.007Z,34.87
2023-02-28T04:18:17.907Z,34.78
2023-02-28T04:20:44.715Z,34.96
2023-02-28T04:23:11.669Z,34.75
2023-02-28T04:25:38.545Z,34.94
2023-02-28T04:28:05.514Z,34.90
2023-02-28T04:30:33.670Z,34.60
2023-02-28T04:33:01.372Z,34.56
2023-02-28T04:35:28.242Z,34.97
2023-02-28T04:37:55.100Z,34.56
2023-02-28T04:40:21.980Z,34.84
2023-02-28T04:42:48.797Z,34.70
2023-02-28T04:45:15.654Z,34.72
2023-02-28T04:47:42.417Z,34.63
2023-02-28T04:50:09.825Z,34.80
2023-02-28T04:52:36.573Z,34.78
2023-02-28T04:55:03.502Z,34.70
2023-02-28T04:57:31.125Z,34.98
2023-02-28T04:59:58.514Z,34.78
2023-02-28T05:02:25.813Z,34.74
2023-02-28T05:04:52.587Z,34.78
2023-02-28T05:07:19.303Z,34.40
2023-02-28T05:09:46.078Z,34.97
2023-02-28T05:12:12.813Z,34.82
2023-02-28T05:14:39.700Z,34.99
2023-02-28T05:17:06.559Z,34.80
2023-02-28T05:19:33.375Z,34.63
2023-02-28T05:22:00.149Z,34.79
2023-02-28T05:24:28.451Z,34.94
2023-02-28T05:26:55.478Z,35.13
2023-02-28T05:29:22.621Z,34.82
2023-02-28T05:31:49.671Z,34.70
2023-02-28T05:34:17.175Z,35.13
2023-02-28T05:36:44.184Z,35.09
2023-02-28T05:39:14.265Z,34.86
2023-02-28T05:41:44.268Z,34.93
2023-02-28T05:44:11.360Z,35.03
2023-02-28T05:46:38.202Z,34.89
2023-02-28T05:49:05.065Z,35.14
2023-02-28T05:51:32.317Z,35.02
2023-02-28T05:54:02.480Z,35.31
2023-02-28T05:56:29.270Z,35.32
2023-02-28T05:58:56.099Z,35.32
2023-02-28T06:01:31.848Z,35.16
2023-02-28T06:04:02.614Z,35.36
2023-02-28T06:06:30.678Z,35.28
2023-02-28T06:08:58.208Z,35.54
2023-02-28T06:11:28.696Z,35.10
2023-02-28T06:13:57.390Z,35.33
2023-02-28T06:16:25.335Z,35.38
2023-02-28T06:18:53.720Z,35.54
2023-02-28T06:21:20.623Z,35.50
2023-02-28T06:23:47.743Z,35.70
2023-02-28T06:26:14.608Z,35.79
2023-02-28T06:28:41.419Z,35.67
2023-02-28T06:31:12.545Z,36.00
2023-02-28T06:33:39.793Z,35.89
2023-02-28T06:36:07.030Z,35.48
2023-02-28T06:38:33.888Z,35.90
2023-02-28T06:41:01.486Z,35.97
2023-02-28T06:43:32.527Z,36.10
2023-02-28T06:46:00.706Z,36.02
2023-02-28T06:48:28.042Z,36.05
2023-02-28T06:51:05.626Z,36.15
2023-02-28T06:53:32.519Z,36.21
2023-02-28T06:55:59.384Z,36.43
2023-02-28T06:58:26.399Z,36.33
2023-02-28T07:00:53.428Z,36.42
2023-02-28T07:03:20.288Z,36.40
2023-02-28T07:05:47.245Z,36.63
2023-02-28T07:08:14.300Z,36.20
2023-02-28T07:10:41.307Z,36.19
2023-02-28T07:13:08.405Z,36.31
2023-02-28T07:15:37.670Z,36.46
2023-02-28T07:18:06.075Z,36.41
2023-02-28T07:20:32.998Z,36.40
2023-02-28T07:22:59.743Z,36.54
2023-02-28T07:25:27.313Z,36.32
2023-02-28T07:27:55.128Z,36.54
2023-02-28T07:30:25.059Z,36.19
2023-02-28T07:32:51.606Z,36.34
2023-02-28T07:35:18.661Z,36.40
2023-02-28T07:37:45.395Z,36.66
2023-02-28T07:40:13.168Z,36.93
2023-02-28T07:42:40.775Z,37.13
2023-02-28T07:45:08.942Z,37.32
2023-02-28T07:47:35.707Z,37.05
2023-02-28T07:50:02.600Z,37.12
2023-02-28T07:52:29.446Z,37.21
2023-02-28T07:54:56.182Z,37.41
2023-02-28T07:57:23.024Z,37.21
2023-02-28T07:59:49.872Z,37.39
2023-02-28T08:02:17.420Z,37.44
2023-02-28T08:04:44.437Z,37.54
2023-02-28T08:07:14.176Z,37.58
2023-02-28T08:09:41.478Z,36.64
2023-02-28T08:12:08.802Z,37.04
2023-02-28T08:14:35.790Z,37.00
2023-02-28T08:17:02.552Z,36.72
2023-02-28T08:19:29.466Z,35.18
2023-02-28T08:21:56.891Z,35.85
2023-02-28T08:24:23.775Z,36.17
2023-02-28T08:26:50.710Z,35.51
2023-02-28T08:29:17.647Z,35.03
2023-02-28T08:31:44.608Z,35.50
2023-02-28T08:34:13.336Z,35.57
2023-02-28T08:36:40.250Z,35.83
2023-02-28T08:39:07.433Z,35.07
2023-02-28T08:41:34.716Z,34.85
2023-02-28T08:44:01.488Z,34.19
2023-02-28T08:46:28.242Z,34.48
2023-02-28T08:48:56.103Z,34.48
2023-02-28T08:51:27.909Z,34.36
2023-02-28T08:53:56.007Z,32.69
2023-02-28T08:56:23.010Z,33.12
2023-02-28T08:58:50.288Z,32.65
2023-02-28T09:01:17.107Z,32.03
2023-02-28T09:03:44.271Z,32.08
2023-02-28T09:06:11.354Z,32.16
2023-02-28T09:08:38.103Z,32.27
2023-02-28T09:11:05.136Z,32.17
2023-02-28T09:13:33.365Z,31.98
2023-02-28T09:16:01.055Z,32.14
2023-02-28T09:18:28.006Z,30.76
2023-02-28T09:20:54.735Z,31.11
2023-02-28T09:23:21.793Z,30.19
2023-02-28T09:25:49.924Z,30.89
2023-02-28T09:28:17.913Z,29.43
2023-02-28T09:30:52.735Z,30.14
2023-02-28T09:33:21.850Z,29.56
2023-02-28T09:35:52.059Z,29.50
2023-02-28T09:38:19.020Z,28.34
2023-02-28T09:40:54.420Z,28.76
2023-02-28T09:43:22.539Z,28.99
2023-02-28T09:45:52.905Z,29.80
2023-02-28T09:48:25.016Z,29.93
2023-02-28T09:51:02.330Z,29.47
2023-02-28T09:53:37.172Z,29.85
2023-02-28T09:56:18.815Z,28.54
2023-02-28T09:58:50.499Z,27.68
2023-02-28T10:01:26.356Z,28.44
2023-02-28T10:04:23.125Z,28.35
2023-02-28T10:06:53.062Z,27.58
2023-02-28T10:09:28.106Z,27.12
2023-02-28T10:11:58.417Z,27.26
2023-02-28T10:14:27.347Z,27.52
2023-02-28T10:17:17.130Z,26.96
2023-02-28T10:19:44.018Z,26.65
2023-02-28T10:22:11.794Z,27.45
2023-02-28T10:24:45.816Z,26.45
2023-02-28T10:27:26.265Z,26.10
2023-02-28T10:29:54.791Z,24.94
2023-02-28T10:32:25.354Z,24.91
2023-02-28T10:35:02.811Z,26.07
2023-02-28T10:37:29.737Z,27.14
2023-02-28T10:39:57.486Z,27.10
2023-02-28T10:42:29.197Z,27.19
2023-02-28T10:45:16.578Z,26.63
2023-02-28T10:47:54.023Z,26.90
2023-02-28T10:50:39.411Z,25.73
2023-02-28T10:53:24.853Z,25.34
2023-02-28T10:56:00.912Z,24.54
2023-02-28T10:58:49.578Z,24.59
2023-02-28T11:01:19.188Z,25.51
2023-02-28T11:03:45.822Z,26.89
2023-02-28T11:06:22.900Z,27.02
2023-02-28T11:08:57.123Z,26.81
2023-02-28T11:11:26.072Z,27.11
2023-02-28T11:13:54.544Z,26.70
2023-02-28T11:16:21.387Z,26.72
2023-02-28T11:18:53.458Z,25.83
2023-02-28T11:21:29.998Z,25.25
2023-02-28T11:24:07.166Z,24.96
2023-02-28T11:26:47.746Z,24.60
2023-02-28T11:29:20.300Z,24.51
2023-02-28T11:32:10.140Z,24.07
2023-02-28T11:34:38.035Z,23.71
2023-02-28T11:37:06.588Z,22.36
2023-02-28T11:39:34.331Z,22.80
2023-02-28T11:42:12.872Z,22.87
2023-02-28T11:45:01.441Z,22.94
2023-02-28T11:47:31.263Z,23.28
2023-02-28T11:50:34.733Z,21.96
2023-02-28T11:53:07.197Z,21.92
2023-02-28T11:55:51.527Z,21.79
2023-02-28T11:58:37.376Z,22.36
2023-02-28T12:01:19.790Z,22.84
2023-02-28T12:04:08.248Z,22.38
2023-02-28T12:06:40.396Z,22.44
2023-02-28T12:09:25.852Z,22.51
2023-02-28T12:11:55.130Z,22.06
2023-02-28T12:14:37.021Z,22.01
2023-02-28T12:17:25.276Z,21.13
2023-02-28T12:20:05.155Z,20.68
2023-02-28T12:22:50.795Z,20.36
2023-02-28T12:25:37.699Z,19.68
2023-02-28T12:28:04.594Z,20.19
2023-02-28T12:30:36.108Z,19.37
2023-02-28T12:33:08.407Z,19.89
2023-02-28T12:35:38.513Z,18.29
2023-02-28T12:38:10.599Z,18.58
2023-02-28T12:41:02.601Z,17.52
2023-02-28T12:43:38.075Z,18.29
2023-02-28T12:46:21.104Z,16.91
2023-02-28T12:48:49.854Z,17.40
2023-02-28T12:51:16.888Z,18.21
2023-02-28T12:53:56.514Z,16.99
2023-02-28T12:56:31.198Z,17.86
2023-02-28T12:59:08.680Z,18.61
2023-02-28T13:01:53.603Z,18.78
2023-02-28T13:04:58.042Z,18.87
2023-02-28T13:07:42.760Z,19.17
2023-02-28T13:10:09.953Z,18.92
2023-02-28T13:12:37.010Z,19.15
2023-02-28T13:15:17.681Z,19.00
2023-02-28T13:17:44.782Z,17.94
2023-02-28T13:20:38.569Z,18.22
2023-02-28T13:23:08.027Z,18.13
2023-02-28T13:25:34.815Z,17.96
2023-02-28T13:28:05.349Z,17.93
2023-02-28T13:30:55.623Z,17.24
2023-02-28T13:33:51.064Z,17.02
2023-02-28T13:36:20.918Z,16.46
2023-02-28T13:38:49.274Z,16.36
2023-02-28T13:41:36.986Z,16.93
2023-02-28T13:44:09.776Z,17.25
2023-02-28T13:46:49.778Z,17.63
2023-02-28T13:49:37.914Z,18.27
2023-02-28T13:52:07.613Z,18.76
2023-02-28T13:54:42.484Z,18.99
2023-02-28T13:57:32.490Z,19.56
2023-02-28T14:00:19.277Z,20.01
2023-02-28T14:03:12.252Z,20.36
2023-02-28T14:05:39.979Z,21.05
2023-02-28T14:08:22.066Z,21.28
2023-02-28T14:10:52.944Z,21.92
2023-02-28T14:13:28.774Z,22.00
2023-02-28T14:16:05.620Z,22.06
2023-02-28T14:18:39.215Z,22.20
2023-02-28T14:21:22.014Z,22.83
2023-02-28T14:24:07.835Z,22.96
2023-02-28T14:26:44.375Z,23.11
2023-02-28T14:29:48.554Z,23.19
2023-02-28T14:32:23.002Z,23.40
2023-02-28T14:35:02.159Z,23.51
2023-02-28T14:37:34.662Z,23.68
2023-02-28T14:40:01.821Z,23.74
2023-02-28T14:42:32.055Z,23.95
2023-02-28T14:44:59.307Z,24.09
2023-02-28T14:47:32.116Z,24.00
2023-02-28T14:50:00.115Z,24.14
2023-02-28T14:52:31.046Z,24.30
2023-02-28T14:55:13.018Z,24.43
2023-02-28T14:57:51.555Z,24.16
2023-02-28T15:00:31.409Z,24.43
2023-02-28T15:02:58.576Z,24.37
2023-02-28T15:05:26.912Z,24.40
2023-02-28T15:08:07.495Z,24.43
2023-02-28T15:10:34.537Z,24.34
2023-02-28T15:13:03.142Z,24.55
2023-02-28T15:16:01.907Z,24.76
2023-02-28T15:18:49.817Z,24.93
2023-02-28T15:21:24.937Z,25.12
2023-02-28T15:23:58.674Z,25.15
2023-02-28T15:26:29.066Z,25.22
2023-02-28T15:29:06.088Z,25.31
2023-02-28T15:31:50.311Z,25.24
2023-02-28T15:34:44.020Z,25.36
2023-02-28T15:37:28.568Z,25.43
2023-02-28T15:39:56.672Z,25.59
2023-02-28T15:42:25.104Z,25.55
2023-02-28T15:44:52.542Z,25.50
2023-02-28T15:47:21.462Z,25.63
2023-02-28T15:49:52.783Z,25.69
2023-02-28T15:52:44.941Z,25.90
2023-02-28T15:55:17.501Z,25.82
2023-02-28T15:57:44.325Z,26.10
2023-02-28T16:00:14.258Z,26.23
2023-02-28T16:02:41.277Z,26.20
2023-02-28T16:05:11.500Z,26.43
2023-02-28T16:07:45.344Z,26.65
2023-02-28T16:10:13.755Z,26.56
2023-02-28T16:12:40.704Z,26.56
2023-02-28T16:15:29.817Z,26.55
2023-02-28T16:17:57.269Z,26.51
2023-02-28T16:20:29.125Z,26.58
2023-02-28T16:22:56.149Z,26.79
2023-02-28T16:25:30.217Z,27.61
2023-02-28T16:27:58.760Z,27.70
2023-02-28T16:30:26.393Z,28.04
2023-02-28T16:32:53.519Z,28.06
2023-02-28T16:35:20.754Z,27.83
2023-02-28T16:37:47.628Z,27.99
2023-02-28T16:40:22.597Z,27.99
2023-02-28T16:42:50.425Z,27.94
2023-02-28T16:45:20.319Z,28.00
2023-02-28T16:47:47.352Z,28.18
2023-02-28T16:50:24.256Z,28.96
2023-02-28T16:52:53.394Z,29.44
2023-02-28T16:55:20.163Z,29.53
2023-02-28T16:57:50.408Z,29.59
2023-02-28T17:00:17.604Z,29.82
2023-02-28T17:02:44.483Z,30.01
2023-02-28T17:05:15.262Z,30.15
2023-02-28T17:07:42.571Z,30.05
2023-02-28T17:10:17.638Z,30.34
2023-02-28T17:12:44.650Z,30.13
2023-02-28T17:15:15.280Z,30.58
2023-02-28T17:17:42.523Z,30.79
2023-02-28T17:20:23.626Z,31.28
2023-02-28T17:22:55.584Z,31.55
2023-02-28T17:25:22.604Z,31.59
2023-02-28T17:27:49.798Z,31.92
2023-02-28T17:30:17.080Z,31.99
2023-02-28T17:32:43.963Z,32.39
2023-02-28T17:35:11.008Z,32.30
2023-02-28T17:37:37.789Z,32.48
2023-02-28T17:40:05.549Z,32.73
2023-02-28T17:42:32.761Z,32.80
2023-02-28T17:44:59.584Z,32.95
2023-02-28T17:47:26.514Z,32.98
2023-02-28T17:49:53.398Z,33.21
2023-02-28T17:52:20.250Z,33.32
2023-02-28T17:54:46.989Z,33.83
2023-02-28T17:57:15.850Z,34.08
2023-02-28T17:59:43.241Z,34.33
2023-02-28T18:02:12.163Z,34.38
2023-02-28T18:04:39.106Z,34.36
2023-02-28T18:07:07.221Z,34.89
2023-02-28T18:09:33.972Z,34.86
2023-02-28T18:12:00.886Z,34.98
2023-02-28T18:14:27.689Z,35.05
2023-02-28T18:16:54.764Z,35.23
2023-02-28T18:19:22.118Z,35.52
2023-02-28T18:21:50.114Z,35.82
2023-02-28T18:24:17.672Z,35.72
2023-02-28T18:26:44.934Z,35.91
2023-02-28T18:29:25.979Z,36.46
2023-02-28T18:31:53.531Z,36.26
2023-02-28T18:34:21.467Z,36.39
2023-02-28T18:36:48.920Z,36.72
2023-02-28T18:39:15.984Z,36.72
2023-02-28T18:41:42.835Z,36.96
2023-02-28T18:44:19.159Z,37.20
2023-02-28T18:46:46.626Z,37.10
2023-02-28T18:49:13.645Z,37.34
2023-02-28T18:51:45.133Z,37.47
2023-02-28T18:54:13.014Z,37.54
2023-02-28T18:56:39.840Z,37.67
2023-02-28T18:59:07.164Z,37.84
2023-02-28T19:01:34.286Z,37.83
2023-02-28T19:04:01.586Z,38.01
2023-02-28T19:06:29.958Z,38.04
2023-02-28T19:08:58.013Z,38.08
2023-02-28T19:11:24.922Z,38.19
2023-02-28T19:13:51.761Z,38.61
2023-02-28T19:16:19.390Z,38.45
2023-02-28T19:18:46.198Z,38.71
2023-02-28T19:21:14.084Z,38.42
2023-02-28T19:23:41.175Z,38.54
2023-02-28T19:26:11.986Z,38.23
2023-02-28T19:28:38.999Z,38.20
2023-02-28T19:31:06.075Z,38.34
2023-02-28T19:33:32.846Z,38.30
2023-02-28T19:36:01.285Z,38.46
2023-02-28T19:38:28.305Z,38.10
2023-02-28T19:41:06.015Z,38.29
2023-02-28T19:43:32.856Z,37.98
2023-02-28T19:45:59.696Z,37.73
2023-02-28T19:48:28.176Z,37.57
2023-02-28T19:51:04.897Z,37.70
2023-02-28T19:53:31.978Z,37.55
2023-02-28T19:56:00.538Z,37.61
2023-02-28T19:58:27.639Z,37.25
2023-02-28T20:00:54.473Z,37.33
2023-02-28T20:03:21.429Z,37.10
2023-02-28T20:05:48.380Z,37.28
2023-02-28T20:08:15.416Z,37.02
2023-02-28T20:10:42.220Z,36.96
2023-02-28T20:13:09.121Z,37.10
2023-02-28T20:15:37.744Z,37.04
2023-02-28T20:18:05.089Z,36.95
2023-02-28T20:20:32.008Z,36.80
2023-02-28T20:22:58.916Z,36.75
2023-02-28T20:25:25.801Z,37.04
2023-02-28T20:27:52.749Z,36.95
2023-02-28T20:30:22.978Z,36.84
2023-02-28T20:32:49.921Z,36.70
2023-02-28T20:35:16.807Z,36.93
2023-02-28T20:37:44.940Z,36.59
2023-02-28T20:40:12.697Z,36.91
2023-02-28T20:42:39.633Z,36.89
2023-02-28T20:45:07.022Z,37.03
2023-02-28T20:47:33.873Z,37.04
2023-02-28T20:50:00.615Z,36.75
2023-02-28T20:52:27.515Z,36.87
2023-02-28T20:54:54.279Z,36.92
2023-02-28T20:57:21.125Z,36.76
2023-02-28T20:59:48.137Z,36.85
2023-02-28T21:02:16.902Z,37.10
2023-02-28T21:04:43.772Z,36.98
2023-02-28T21:07:10.668Z,37.11
2023-02-28T21:09:37.449Z,36.99
2023-02-28T21:12:04.336Z,37.14
2023-02-28T21:14:32.429Z,37.25
2023-02-28T21:16:59.231Z,37.16
2023-02-28T21:19:26.044Z,37.18
2023-02-28T21:21:54.471Z,37.05
2023-02-28T21:24:21.400Z,37.02
2023-02-28T21:26:48.460Z,37.03
2023-02-28T21:29:15.584Z,37.12
2023-02-28T21:31:42.441Z,36.98
2023-02-28T21:34:09.818Z,37.32
2023-02-28T21:36:39.783Z,37.18
2023-02-28T21:39:13.142Z,37.25
2023-02-28T21:41:40.162Z,37.26
2023-02-28T21:44:07.032Z,37.22
2023-02-28T21:46:34.123Z,37.24
2023-02-28T21:49:01.434Z,37.46
2023-02-28T21:51:31.346Z,37.19
2023-02-28T21:53:59.244Z,37.43
2023-02-28T21:56:28.419Z,37.38
2023-02-28T21:59:01.602Z,37.29
2023-02-28T22:01:35.630Z,37.22
2023-02-28T22:04:03.482Z,37.37
2023-02-28T22:06:32.578Z,37.37
2023-02-28T22:09:02.261Z,37.61
2023-02-28T22:11:29.168Z,37.70
2023-02-28T22:13:57.261Z,37.72
2023-02-28T22:16:25.008Z,37.66
2023-02-28T22:18:51.894Z,37.88
2023-02-28T22:21:19.131Z,37.93
2023-02-28T22:23:46.127Z,37.86
2023-02-28T22:26:15.599Z,37.79
2023-02-28T22:28:42.564Z,37.98
2023-02-28T22:31:20.192Z,37.93
2023-02-28T22:33:47.237Z,37.83
2023-02-28T22:36:15.137Z,38.04
2023-02-28T22:38:42.985Z,37.82
2023-02-28T22:41:10.181Z,37.92
2023-02-28T22:43:37.075Z,37.88
2023-02-28T22:46:04.932Z,37.97
2023-02-28T22:48:31.795Z,38.15
2023-02-28T22:51:06.453Z,38.31
2023-02-28T22:53:34.349Z,38.29
2023-02-28T22:56:01.260Z,38.40
2023-02-28T22:58:28.265Z,38.69
2023-02-28T23:00:55.088Z,38.50
2023-02-28T23:03:25.475Z,38.56
2023-02-28T23:05:52.869Z,38.58
2023-02-28T23:08:23.429Z,38.78
2023-02-28T23:10:51.168Z,38.42
2023-02-28T23:13:18.935Z,38.83
2023-02-28T23:15:46.043Z,38.76
2023-02-28T23:18:13.131Z,38.68
2023-02-28T23:20:39.977Z,38.81
2023-02-28T23:23:06.804Z,38.73
2023-02-28T23:25:33.905Z,38.80
2023-02-28T23:28:01.298Z,38.86
2023-02-28T23:30:28.107Z,39.06
2023-02-28T23:32:55.426Z,38.94
2023-02-28T23:35:23.019Z,38.98
2023-02-28T23:37:50.015Z,38.98
2023-02-28T23:40:17.407Z,39.07
2023-02-28T23:42:45.155Z,38.99
2023-02-28T23:45:14.316Z,39.13
2023-02-28T23:47:41.696Z,39.10
2023-02-28T23:50:09.406Z,39.02
2023-02-28T23:52:36.236Z,39.23
2023-02-28T23:55:03.133Z,39.03
2023-02-28T23:57:30.070Z,39.01
2023-02-28T23:59:57.009Z,38.97
